sensor_id;sensor_type;location;lat;lon;timestamp;pressure;altitude;pressure_sealevel;temperature;humidity
49055;BME280;35405;52.344;14.530;2023-02-12T07:22:24;102730.28;;;4.80;100.00
49055;BME280;35405;52.344;14.530;2023-02-12T07:24:49;102736.94;;;4.84;100.00
49055;BME280;35405;52.344;14.530;2023-02-12T07:27:14;102738.19;;;4.81;100.00
49055;BME280;35405;52.344;14.530;2023-02-12T07:29:39;102748.13;;;4.81;100.00
49055;BME280;35405;52.344;14.530;2023-02-12T07:32:05;102746.06;;;4.83;100.00
49055;BME280;35405;52.344;14.530;2023-02-12T07:34:30;102737.81;;;4.91;100.00
49055;BME280;35405;52.344;14.530;2023-02-12T07:36:56;102753.75;;;4.93;100.00
49055;BME280;35405;52.344;14.530;2023-02-12T07:39:21;102755.00;;;4.90;100.00
49055;BME280;35405;52.344;14.530;2023-02-12T07:41:46;102759.97;;;4.93;100.00
49055;BME280;35405;52.344;14.530;2023-02-12T07:44:11;102758.34;;;4.99;100.00
49055;BME280;35405;52.344;14.530;2023-02-12T07:46:41;102763.34;;;5.02;100.00
49055;BME280;35405;52.344;14.530;2023-02-12T07:49:07;102757.13;;;5.01;100.00
49055;BME280;35405;52.344;14.530;2023-02-12T07:51:35;102754.66;;;5.07;100.00
49055;BME280;35405;52.344;14.530;2023-02-12T07:54:01;102753.41;;;5.02;100.00
49055;BME280;35405;52.344;14.530;2023-02-12T07:56:28;102756.28;;;5.01;100.00
49055;BME280;35405;52.344;14.530;2023-02-12T07:58:55;102766.66;;;5.04;100.00
49055;BME280;35405;52.344;14.530;2023-02-12T08:01:21;102773.53;;;5.13;100.00
49055;BME280;35405;52.344;14.530;2023-02-12T08:03:47;102767.56;;;5.24;100.00
49055;BME280;35405;52.344;14.530;2023-02-12T08:06:22;102772.97;;;5.31;100.00
49055;BME280;35405;52.344;14.530;2023-02-12T08:08:52;102770.47;;;5.30;100.00
49055;BME280;35405;52.344;14.530;2023-02-12T08:11:18;102776.91;;;5.35;100.00
49055;BME280;35405;52.344;14.530;2023-02-12T08:13:43;102775.66;;;5.38;100.00
49055;BME280;35405;52.344;14.530;2023-02-12T08:16:10;102780.44;;;5.36;100.00
49055;BME280;35405;52.344;14.530;2023-02-12T08:18:35;102787.28;;;5.38;100.00
49055;BME280;35405;52.344;14.530;2023-02-12T08:21:01;102787.31;;;5.45;100.00
49055;BME280;35405;52.344;14.530;2023-02-12T08:23:27;102786.91;;;5.48;100.00
49055;BME280;35405;52.344;14.530;2023-02-12T08:25:52;102787.94;;;5.54;100.00
49055;BME280;35405;52.344;14.530;2023-02-12T08:28:18;102792.31;;;5.61;100.00
49055;BME280;35405;52.344;14.530;2023-02-12T08:30:43;102794.00;;;5.69;100.00
49055;BME280;35405;52.344;14.530;2023-02-12T08:33:08;102795.84;;;5.75;100.00
49055;BME280;35405;52.344;14.530;2023-02-12T08:35:33;102790.03;;;5.78;100.00
49055;BME280;35405;52.344;14.530;2023-02-12T08:37:58;102805.19;;;5.79;100.00
49055;BME280;35405;52.344;14.530;2023-02-12T08:40:23;102788.56;;;5.89;100.00
49055;BME280;35405;52.344;14.530;2023-02-12T08:42:49;102796.69;;;5.95;100.00
49055;BME280;35405;52.344;14.530;2023-02-12T08:45:14;102803.53;;;5.91;100.00
49055;BME280;35405;52.344;14.530;2023-02-12T08:47:39;102814.34;;;5.98;100.00
49055;BME280;35405;52.344;14.530;2023-02-12T08:50:07;102807.94;;;5.99;100.00
49055;BME280;35405;52.344;14.530;2023-02-12T08:52:33;102822.03;;;6.01;100.00
49055;BME280;35405;52.344;14.530;2023-02-12T08:54:58;102826.41;;;6.09;100.00
49055;BME280;35405;52.344;14.530;2023-02-12T08:57:24;102833.91;;;6.20;100.00
49055;BME280;35405;52.344;14.530;2023-02-12T08:59:49;102828.28;;;6.15;100.00
49055;BME280;35405;52.344;14.530;2023-02-12T09:02:14;102830.78;;;6.10;100.00
49055;BME280;35405;52.344;14.530;2023-02-12T09:04:39;102839.09;;;6.15;100.00
49055;BME280;35405;52.344;14.530;2023-02-12T09:07:05;102838.03;;;6.16;100.00
49055;BME280;35405;52.344;14.530;2023-02-12T09:09:30;102847.81;;;6.30;100.00
49055;BME280;35405;52.344;14.530;2023-02-12T09:11:55;102843.03;;;6.39;100.00
49055;BME280;35405;52.344;14.530;2023-02-12T09:14:20;102852.16;;;6.45;100.00
49055;BME280;35405;52.344;14.530;2023-02-12T09:16:48;102860.06;;;6.39;100.00
49055;BME280;35405;52.344;14.530;2023-02-12T09:19:16;102859.03;;;6.47;100.00
49055;BME280;35405;52.344;14.530;2023-02-12T09:21:41;102858.16;;;6.47;100.00
49055;BME280;35405;52.344;14.530;2023-02-12T09:24:07;102870.44;;;6.43;100.00
49055;BME280;35405;52.344;14.530;2023-02-12T09:26:32;102872.97;;;6.44;100.00
49055;BME280;35405;52.344;14.530;2023-02-12T09:28:57;102876.69;;;6.36;100.00
49055;BME280;35405;52.344;14.530;2023-02-12T09:31:24;102879.81;;;6.40;100.00
49055;BME280;35405;52.344;14.530;2023-02-12T09:33:50;102887.91;;;6.40;100.00
49055;BME280;35405;52.344;14.530;2023-02-12T09:36:16;102885.22;;;6.33;100.00
49055;BME280;35405;52.344;14.530;2023-02-12T09:38:41;102889.16;;;6.31;100.00
49055;BME280;35405;52.344;14.530;2023-02-12T09:46:15;102882.91;;;6.44;100.00
49055;BME280;35405;52.344;14.530;2023-02-12T09:51:07;102887.28;;;6.58;100.00
49055;BME280;35405;52.344;14.530;2023-02-12T09:53:34;102889.34;;;6.49;100.00
49055;BME280;35405;52.344;14.530;2023-02-12T09:56:00;102887.72;;;6.35;100.00
49055;BME280;35405;52.344;14.530;2023-02-12T10:00:50;102893.53;;;6.38;100.00
49055;BME280;35405;52.344;14.530;2023-02-12T10:03:16;102888.94;;;6.46;100.00
49055;BME280;35405;52.344;14.530;2023-02-12T10:05:52;102884.56;;;6.58;100.00
49055;BME280;35405;52.344;14.530;2023-02-12T10:16:11;102886.13;;;7.05;100.00
49055;BME280;35405;52.344;14.530;2023-02-12T10:26:17;102888.13;;;7.23;100.00
49055;BME280;35405;52.344;14.530;2023-02-12T10:28:43;102894.97;;;7.32;100.00
49055;BME280;35405;52.344;14.530;2023-02-12T10:33:44;102887.53;;;7.15;100.00
49055;BME280;35405;52.344;14.530;2023-02-12T10:36:17;102891.28;;;7.20;100.00
49055;BME280;35405;52.344;14.530;2023-02-12T10:38:44;102891.47;;;7.19;100.00
49055;BME280;35405;52.344;14.530;2023-02-12T10:41:11;102889.59;;;7.26;100.00
49055;BME280;35405;52.344;14.530;2023-02-12T10:43:38;102891.19;;;7.33;100.00
49055;BME280;35405;52.344;14.530;2023-02-12T10:46:04;102889.75;;;7.38;100.00
49055;BME280;35405;52.344;14.530;2023-02-12T10:48:37;102894.94;;;7.39;100.00
49055;BME280;35405;52.344;14.530;2023-02-12T10:54:02;102887.03;;;7.31;100.00
49055;BME280;35405;52.344;14.530;2023-02-12T10:56:21;102881.22;;;7.34;100.00
49055;BME280;35405;52.344;14.530;2023-02-12T11:01:15;102879.28;;;7.48;100.00
49055;BME280;35405;52.344;14.530;2023-02-12T11:03:41;102883.78;;;7.61;100.00
49055;BME280;35405;52.344;14.530;2023-02-12T11:06:19;102884.63;;;7.61;100.00
49055;BME280;35405;52.344;14.530;2023-02-12T11:08:45;102882.94;;;7.60;100.00
49055;BME280;35405;52.344;14.530;2023-02-12T11:11:11;102891.50;;;7.57;100.00
49055;BME280;35405;52.344;14.530;2023-02-12T11:13:38;102887.38;;;7.48;100.00
49055;BME280;35405;52.344;14.530;2023-02-12T11:16:05;102886.59;;;7.41;100.00
49055;BME280;35405;52.344;14.530;2023-02-12T11:18:31;102891.16;;;7.47;100.00
49055;BME280;35405;52.344;14.530;2023-02-12T11:21:01;102892.56;;;7.56;100.00
49055;BME280;35405;52.344;14.530;2023-02-12T11:23:28;102890.81;;;7.68;100.00
49055;BME280;35405;52.344;14.530;2023-02-12T11:25:58;102880.50;;;7.84;100.00
49055;BME280;35405;52.344;14.530;2023-02-12T11:28:23;102874.22;;;7.90;100.00
49055;BME280;35405;52.344;14.530;2023-02-12T11:30:50;102880.69;;;7.89;100.00
49055;BME280;35405;52.344;14.530;2023-02-12T11:33:18;102880.03;;;7.93;100.00
49055;BME280;35405;52.344;14.530;2023-02-12T11:35:50;102879.81;;;7.95;100.00
49055;BME280;35405;52.344;14.530;2023-02-12T11:38:26;102880.84;;;7.94;100.00
49055;BME280;35405;52.344;14.530;2023-02-12T11:40:54;102882.34;;;7.90;100.00
49055;BME280;35405;52.344;14.530;2023-02-12T11:43:20;102886.75;;;7.84;100.00
49055;BME280;35405;52.344;14.530;2023-02-12T11:45:46;102888.19;;;7.87;100.00
49055;BME280;35405;52.344;14.530;2023-02-12T11:51:08;102877.81;;;7.84;100.00
49055;BME280;35405;52.344;14.530;2023-02-12T11:53:42;102874.84;;;7.92;100.00
49055;BME280;35405;52.344;14.530;2023-02-12T11:56:11;102871.56;;;8.08;100.00
49055;BME280;35405;52.344;14.530;2023-02-12T11:58:38;102869.03;;;8.13;100.00
49055;BME280;35405;52.344;14.530;2023-02-12T12:03:34;102864.84;;;8.42;100.00
49055;BME280;35405;52.344;14.530;2023-02-12T12:06:04;102862.38;;;8.59;100.00
49055;BME280;35405;52.344;14.530;2023-02-12T12:08:41;102859.50;;;8.54;100.00
49055;BME280;35405;52.344;14.530;2023-02-12T12:11:10;102858.00;;;8.40;100.00
49055;BME280;35405;52.344;14.530;2023-02-12T12:13:42;102856.59;;;8.31;100.00
49055;BME280;35405;52.344;14.530;2023-02-12T12:19:21;102864.75;;;7.99;100.00
49055;BME280;35405;52.344;14.530;2023-02-12T12:24:39;102868.78;;;7.90;100.00
49055;BME280;35405;52.344;14.530;2023-02-12T12:32:59;102863.34;;;7.65;100.00
49055;BME280;35405;52.344;14.530;2023-02-12T12:35:38;102862.16;;;7.54;100.00
49055;BME280;35405;52.344;14.530;2023-02-12T12:43:38;102857.91;;;7.96;100.00
49055;BME280;35405;52.344;14.530;2023-02-12T12:46:08;102856.69;;;7.92;100.00
49055;BME280;35405;52.344;14.530;2023-02-12T12:48:43;102852.09;;;7.93;100.00
49055;BME280;35405;52.344;14.530;2023-02-12T12:59:03;102852.50;;;7.65;100.00
49055;BME280;35405;52.344;14.530;2023-02-12T13:16:46;102841.13;;;7.56;100.00
49055;BME280;35405;52.344;14.530;2023-02-12T13:24:28;102834.94;;;7.42;100.00
49055;BME280;35405;52.344;14.530;2023-02-12T13:26:58;102837.78;;;7.54;100.00
49055;BME280;35405;52.344;14.530;2023-02-12T13:29:26;102835.75;;;7.49;100.00
49055;BME280;35405;52.344;14.530;2023-02-12T13:32:01;102830.75;;;7.46;100.00
49055;BME280;35405;52.344;14.530;2023-02-12T13:34:28;102833.47;;;7.46;100.00
49055;BME280;35405;52.344;14.530;2023-02-12T13:36:54;102829.91;;;7.46;100.00
49055;BME280;35405;52.344;14.530;2023-02-12T13:39:37;102832.91;;;7.38;100.00
49055;BME280;35405;52.344;14.530;2023-02-12T13:42:11;102831.44;;;7.35;100.00
49055;BME280;35405;52.344;14.530;2023-02-12T13:50:03;102832.06;;;7.37;100.00
49055;BME280;35405;52.344;14.530;2023-02-12T13:57:41;102833.34;;;7.35;100.00
49055;BME280;35405;52.344;14.530;2023-02-12T14:00:26;102836.66;;;7.30;100.00
49055;BME280;35405;52.344;14.530;2023-02-12T14:02:51;102837.16;;;7.20;100.00
49055;BME280;35405;52.344;14.530;2023-02-12T14:05:20;102831.50;;;7.22;100.00
49055;BME280;35405;52.344;14.530;2023-02-12T14:07:51;102831.72;;;7.20;100.00
49055;BME280;35405;52.344;14.530;2023-02-12T14:10:21;102822.81;;;7.13;100.00
49055;BME280;35405;52.344;14.530;2023-02-12T14:12:47;102828.00;;;7.15;100.00
49055;BME280;35405;52.344;14.530;2023-02-12T14:18:05;102831.97;;;7.12;100.00
49055;BME280;35405;52.344;14.530;2023-02-12T14:20:34;102828.66;;;7.10;100.00
49055;BME280;35405;52.344;14.530;2023-02-12T14:27:57;102836.22;;;6.88;100.00
49055;BME280;35405;52.344;14.530;2023-02-12T14:30:36;102830.66;;;6.83;100.00
49055;BME280;35405;52.344;14.530;2023-02-12T14:35:42;102829.44;;;6.72;100.00
49055;BME280;35405;52.344;14.530;2023-02-12T14:43:20;102836.34;;;6.55;100.00
49055;BME280;35405;52.344;14.530;2023-02-12T14:45:45;102834.03;;;6.58;100.00
49055;BME280;35405;52.344;14.530;2023-02-12T14:48:10;102844.84;;;6.65;100.00
49055;BME280;35405;52.344;14.530;2023-02-12T14:50:56;102838.59;;;6.71;100.00
49055;BME280;35405;52.344;14.530;2023-02-12T14:53:26;102837.13;;;6.69;100.00
49055;BME280;35405;52.344;14.530;2023-02-12T14:55:53;102832.31;;;6.71;100.00
49055;BME280;35405;52.344;14.530;2023-02-12T14:58:20;102835.25;;;6.69;100.00
49055;BME280;35405;52.344;14.530;2023-02-12T15:00:47;102839.03;;;6.68;100.00
49055;BME280;35405;52.344;14.530;2023-02-12T15:05:45;102837.13;;;6.69;100.00
49055;BME280;35405;52.344;14.530;2023-02-12T15:08:14;102842.75;;;6.67;100.00
49055;BME280;35405;52.344;14.530;2023-02-12T15:10:46;102838.59;;;6.71;100.00
49055;BME280;35405;52.344;14.530;2023-02-12T15:15:58;102837.31;;;6.74;100.00
49055;BME280;35405;52.344;14.530;2023-02-12T15:18:28;102830.47;;;6.71;100.00
49055;BME280;35405;52.344;14.530;2023-02-12T15:20:59;102838.59;;;6.71;100.00
49055;BME280;35405;52.344;14.530;2023-02-12T15:23:36;102844.00;;;6.71;100.00
49055;BME280;35405;52.344;14.530;2023-02-12T15:26:02;102831.91;;;6.74;100.00
49055;BME280;35405;52.344;14.530;2023-02-12T15:28:32;102836.91;;;6.70;100.00
49055;BME280;35405;52.344;14.530;2023-02-12T15:31:00;102833.19;;;6.64;100.00
49055;BME280;35405;52.344;14.530;2023-02-12T15:33:27;102839.44;;;6.65;100.00
49055;BME280;35405;52.344;14.530;2023-02-12T15:35:52;102836.53;;;6.60;100.00
49055;BME280;35405;52.344;14.530;2023-02-12T15:38:23;102839.03;;;6.55;100.00
49055;BME280;35405;52.344;14.530;2023-02-12T15:40:54;102831.56;;;6.57;100.00
49055;BME280;35405;52.344;14.530;2023-02-12T15:43:19;102829.47;;;6.59;100.00
49055;BME280;35405;52.344;14.530;2023-02-12T15:45:48;102827.19;;;6.56;100.00
49055;BME280;35405;52.344;14.530;2023-02-12T15:48:19;102814.69;;;6.55;100.00
49055;BME280;35405;52.344;14.530;2023-02-12T15:50:47;102811.78;;;6.50;100.00
49055;BME280;35405;52.344;14.530;2023-02-12T15:53:15;102819.09;;;6.43;100.00
49055;BME280;35405;52.344;14.530;2023-02-12T15:55:41;102818.88;;;6.37;100.00
49055;BME280;35405;52.344;14.530;2023-02-12T15:58:17;102819.53;;;6.33;100.00
49055;BME280;35405;52.344;14.530;2023-02-12T16:00:44;102818.72;;;6.32;100.00
49055;BME280;35405;52.344;14.530;2023-02-12T16:05:47;102815.16;;;6.25;100.00
49055;BME280;35405;52.344;14.530;2023-02-12T16:08:14;102816.00;;;6.19;100.00
49055;BME280;35405;52.344;14.530;2023-02-12T16:10:43;102814.56;;;6.16;100.00
49055;BME280;35405;52.344;14.530;2023-02-12T16:13:17;102808.56;;;6.14;100.00
49055;BME280;35405;52.344;14.530;2023-02-12T16:15:43;102814.97;;;6.13;100.00
49055;BME280;35405;52.344;14.530;2023-02-12T16:18:24;102817.06;;;6.11;100.00
49055;BME280;35405;52.344;14.530;2023-02-12T16:21:00;102822.66;;;6.10;100.00
49055;BME280;35405;52.344;14.530;2023-02-12T16:23:25;102824.97;;;6.06;100.00
49055;BME280;35405;52.344;14.530;2023-02-12T16:25:54;102826.22;;;6.04;100.00
49055;BME280;35405;52.344;14.530;2023-02-12T16:28:23;102834.31;;;6.04;100.00
49055;BME280;35405;52.344;14.530;2023-02-12T16:30:51;102832.03;;;6.01;100.00
49055;BME280;35405;52.344;14.530;2023-02-12T16:33:33;102824.97;;;6.00;100.00
49055;BME280;35405;52.344;14.530;2023-02-12T16:35:59;102836.78;;;5.99;100.00
49055;BME280;35405;52.344;14.530;2023-02-12T16:38:44;102823.50;;;5.97;100.00
49055;BME280;35405;52.344;14.530;2023-02-12T16:43:44;102839.09;;;5.95;100.00
49055;BME280;35405;52.344;14.530;2023-02-12T16:46:10;102838.88;;;5.97;100.00
49055;BME280;35405;52.344;14.530;2023-02-12T16:48:36;102831.81;;;5.95;100.00
49055;BME280;35405;52.344;14.530;2023-02-12T16:51:02;102837.22;;;5.95;100.00
49055;BME280;35405;52.344;14.530;2023-02-12T16:55:55;102842.38;;;5.90;100.00
49055;BME280;35405;52.344;14.530;2023-02-12T16:58:20;102840.72;;;5.89;100.00
49055;BME280;35405;52.344;14.530;2023-02-12T17:00:45;102849.84;;;5.88;100.00
49055;BME280;35405;52.344;14.530;2023-02-12T17:03:11;102851.50;;;5.89;100.00
49055;BME280;35405;52.344;14.530;2023-02-12T17:05:37;102847.16;;;5.88;100.00
49055;BME280;35405;52.344;14.530;2023-02-12T17:08:02;102855.47;;;5.87;100.00
49055;BME280;35405;52.344;14.530;2023-02-12T17:10:27;102857.31;;;5.86;100.00
49055;BME280;35405;52.344;14.530;2023-02-12T17:12:52;102854.84;;;5.85;100.00
49055;BME280;35405;52.344;14.530;2023-02-12T17:15:28;102864.81;;;5.84;100.00
49055;BME280;35405;52.344;14.530;2023-02-12T17:17:54;102867.53;;;5.84;100.00
49055;BME280;35405;52.344;14.530;2023-02-12T17:20:19;102867.53;;;5.84;100.00
49055;BME280;35405;52.344;14.530;2023-02-12T17:22:51;102864.81;;;5.84;100.00
49055;BME280;35405;52.344;14.530;2023-02-12T17:25:17;102871.88;;;5.85;100.00
49055;BME280;35405;52.344;14.530;2023-02-12T17:27:42;102866.47;;;5.85;100.00
49055;BME280;35405;52.344;14.530;2023-02-12T17:30:07;102869.59;;;5.82;100.00
49055;BME280;35405;52.344;14.530;2023-02-12T17:32:33;102863.13;;;5.83;100.00
49055;BME280;35405;52.344;14.530;2023-02-12T17:34:58;102865.22;;;5.81;100.00
49055;BME280;35405;52.344;14.530;2023-02-12T17:37:23;102861.50;;;5.82;100.00
49055;BME280;35405;52.344;14.530;2023-02-12T17:39:49;102854.44;;;5.81;100.00
49055;BME280;35405;52.344;14.530;2023-02-12T17:42:14;102868.75;;;5.82;100.00
49055;BME280;35405;52.344;14.530;2023-02-12T17:44:39;102859.00;;;5.81;100.00
49055;BME280;35405;52.344;14.530;2023-02-12T17:47:05;102869.16;;;5.79;100.00
49055;BME280;35405;52.344;14.530;2023-02-12T17:49:30;102859.00;;;5.81;100.00
49055;BME280;35405;52.344;14.530;2023-02-12T17:51:56;102858.78;;;5.82;100.00
49055;BME280;35405;52.344;14.530;2023-02-12T17:54:21;102861.50;;;5.82;100.00
49055;BME280;35405;52.344;14.530;2023-02-12T17:56:46;102865.44;;;5.80;100.00
49055;BME280;35405;52.344;14.530;2023-02-12T17:59:11;102864.41;;;5.81;100.00
49055;BME280;35405;52.344;14.530;2023-02-12T18:01:37;102865.66;;;5.78;100.00
49055;BME280;35405;52.344;14.530;2023-02-12T18:04:03;102861.25;;;5.77;100.00
49055;BME280;35405;52.344;14.530;2023-02-12T18:06:29;102877.28;;;5.79;100.00
49055;BME280;35405;52.344;14.530;2023-02-12T18:08:55;102871.03;;;5.78;100.00
49055;BME280;35405;52.344;14.530;2023-02-12T18:11:21;102868.75;;;5.75;100.00
49055;BME280;35405;52.344;14.530;2023-02-12T18:13:46;102870.59;;;5.74;100.00
49055;BME280;35405;52.344;14.530;2023-02-12T18:16:18;102874.34;;;5.73;100.00
49055;BME280;35405;52.344;14.530;2023-02-12T18:18:50;102874.16;;;5.75;100.00
49055;BME280;35405;52.344;14.530;2023-02-12T18:21:15;102881.63;;;5.73;100.00
49055;BME280;35405;52.344;14.530;2023-02-12T18:23:41;102881.81;;;5.71;100.00
49055;BME280;35405;52.344;14.530;2023-02-12T18:26:08;102885.78;;;5.69;100.00
49055;BME280;35405;52.344;14.530;2023-02-12T18:28:34;102877.69;;;5.69;100.00
49055;BME280;35405;52.344;14.530;2023-02-12T18:31:02;102884.09;;;5.68;100.00
49055;BME280;35405;52.344;14.530;2023-02-12T18:33:28;102880.97;;;5.71;100.00
49055;BME280;35405;52.344;14.530;2023-02-12T18:35:57;102880.56;;;5.74;100.00
49055;BME280;35405;52.344;14.530;2023-02-12T18:38:23;102878.09;;;5.72;100.00
49055;BME280;35405;52.344;14.530;2023-02-12T18:40:48;102880.97;;;5.71;100.00
49055;BME280;35405;52.344;14.530;2023-02-12T18:43:20;102876.00;;;5.74;100.00
49055;BME280;35405;52.344;14.530;2023-02-12T18:45:46;102873.09;;;5.76;100.00
49055;BME280;35405;52.344;14.530;2023-02-12T18:48:11;102876.00;;;5.74;100.00
49055;BME280;35405;52.344;14.530;2023-02-12T18:50:37;102865.41;;;5.73;100.00
49055;BME280;35405;52.344;14.530;2023-02-12T18:53:02;102869.34;;;5.70;100.00
49055;BME280;35405;52.344;14.530;2023-02-12T18:55:27;102869.56;;;5.69;100.00
49055;BME280;35405;52.344;14.530;2023-02-12T18:57:53;102872.88;;;5.71;100.00
49055;BME280;35405;52.344;14.530;2023-02-12T19:00:18;102872.06;;;5.70;100.00
49055;BME280;35405;52.344;14.530;2023-02-12T19:02:44;102872.88;;;5.71;100.00
49055;BME280;35405;52.344;14.530;2023-02-12T19:05:09;102871.22;;;5.70;100.00
49055;BME280;35405;52.344;14.530;2023-02-12T19:07:34;102872.88;;;5.71;100.00
49055;BME280;35405;52.344;14.530;2023-02-12T19:10:00;102877.25;;;5.72;100.00
49055;BME280;35405;52.344;14.530;2023-02-12T19:12:28;102872.69;;;5.72;100.00
49055;BME280;35405;52.344;14.530;2023-02-12T19:14:53;102881.22;;;5.76;100.00
49055;BME280;35405;52.344;14.530;2023-02-12T19:17:19;102876.00;;;5.74;100.00
49055;BME280;35405;52.344;14.530;2023-02-12T19:19:49;102877.69;;;5.76;100.00
49055;BME280;35405;52.344;14.530;2023-02-12T19:22:15;102879.75;;;5.73;100.00
49055;BME280;35405;52.344;14.530;2023-02-12T19:24:40;102882.25;;;5.75;100.00
49055;BME280;35405;52.344;14.530;2023-02-12T19:27:06;102883.72;;;5.78;100.00
49055;BME280;35405;52.344;14.530;2023-02-12T19:29:31;102878.31;;;5.78;100.00
49055;BME280;35405;52.344;14.530;2023-02-12T19:31:56;102880.38;;;5.76;100.00
49055;BME280;35405;52.344;14.530;2023-02-12T19:34:21;102880.56;;;5.74;100.00
49055;BME280;35405;52.344;14.530;2023-02-12T19:36:47;102893.66;;;5.70;100.00
49055;BME280;35405;52.344;14.530;2023-02-12T19:39:14;102886.59;;;5.69;100.00
49055;BME280;35405;52.344;14.530;2023-02-12T19:41:41;102888.25;;;5.70;100.00
49055;BME280;35405;52.344;14.530;2023-02-12T19:44:08;102890.13;;;5.70;100.00
49055;BME280;35405;52.344;14.530;2023-02-12T19:46:34;102892.19;;;5.68;100.00
49055;BME280;35405;52.344;14.530;2023-02-12T19:49:00;102891.38;;;5.67;100.00
49055;BME280;35405;52.344;14.530;2023-02-12T19:51:26;102887.84;;;5.67;100.00
49055;BME280;35405;52.344;14.530;2023-02-12T19:53:53;102874.53;;;5.65;100.00
49055;BME280;35405;52.344;14.530;2023-02-12T19:56:23;102875.78;;;5.63;100.00
49055;BME280;35405;52.344;14.530;2023-02-12T19:58:48;102871.22;;;5.63;100.00
49055;BME280;35405;52.344;14.530;2023-02-12T20:01:15;102874.53;;;5.59;100.00
49055;BME280;35405;52.344;14.530;2023-02-12T20:03:41;102877.22;;;5.59;100.00
49055;BME280;35405;52.344;14.530;2023-02-12T20:06:08;102877.03;;;5.60;100.00
49055;BME280;35405;52.344;14.530;2023-02-12T20:08:34;102879.31;;;5.63;100.00
49055;BME280;35405;52.344;14.530;2023-02-12T20:11:03;102876.41;;;5.65;100.00
49055;BME280;35405;52.344;14.530;2023-02-12T20:13:29;102878.91;;;5.66;100.00
49055;BME280;35405;52.344;14.530;2023-02-12T20:15:54;102878.28;;;5.64;100.00
49055;BME280;35405;52.344;14.530;2023-02-12T20:18:19;102881.81;;;5.65;100.00
49055;BME280;35405;52.344;14.530;2023-02-12T20:20:44;102871.81;;;5.65;100.00
49055;BME280;35405;52.344;14.530;2023-02-12T20:23:09;102875.38;;;5.66;100.00
49055;BME280;35405;52.344;14.530;2023-02-12T20:25:40;102872.69;;;5.66;100.00
49055;BME280;35405;52.344;14.530;2023-02-12T20:28:05;102871.00;;;5.65;100.00
49055;BME280;35405;52.344;14.530;2023-02-12T20:30:31;102872.69;;;5.66;100.00
49055;BME280;35405;52.344;14.530;2023-02-12T20:32:56;102869.75;;;5.67;100.00
49055;BME280;35405;52.344;14.530;2023-02-12T20:35:21;102864.78;;;5.71;100.00
49055;BME280;35405;52.344;14.530;2023-02-12T20:37:46;102875.16;;;5.74;100.00
49055;BME280;35405;52.344;14.530;2023-02-12T20:40:11;102881.41;;;5.74;100.00
49055;BME280;35405;52.344;14.530;2023-02-12T20:42:37;102877.69;;;5.76;100.00
